sensor_id;sensor_type;location;lat;lon;timestamp;P1;durP1;ratioP1;P2;durP2;ratioP2
20627;SDS011;10473;42.734;24.258;2022-09-27T00:00:22;2.00;;;1.73;;
20627;SDS011;10473;42.734;24.258;2022-09-27T00:02:50;1.57;;;1.43;;
20627;SDS011;10473;42.734;24.258;2022-09-27T00:05:19;1.73;;;1.40;;
20627;SDS011;10473;42.734;24.258;2022-09-27T00:07:47;2.20;;;1.67;;
20627;SDS011;10473;42.734;24.258;2022-09-27T00:10:15;2.00;;;1.57;;
20627;SDS011;10473;42.734;24.258;2022-09-27T00:12:43;1.63;;;1.53;;
20627;SDS011;10473;42.734;24.258;2022-09-27T00:15:11;2.20;;;1.43;;
20627;SDS011;10473;42.734;24.258;2022-09-27T00:17:39;2.27;;;1.80;;
20627;SDS011;10473;42.734;24.258;2022-09-27T00:20:07;3.17;;;1.67;;
20627;SDS011;10473;42.734;24.258;2022-09-27T00:22:37;1.70;;;1.60;;
20627;SDS011;10473;42.734;24.258;2022-09-27T00:25:05;2.13;;;1.70;;
20627;SDS011;10473;42.734;24.258;2022-09-27T00:27:33;2.00;;;1.47;;
20627;SDS011;10473;42.734;24.258;2022-09-27T00:30:01;3.00;;;1.70;;
20627;SDS011;10473;42.734;24.258;2022-09-27T00:32:29;2.30;;;1.57;;
20627;SDS011;10473;42.734;24.258;2022-09-27T00:34:57;1.70;;;1.60;;
20627;SDS011;10473;42.734;24.258;2022-09-27T00:37:25;2.33;;;1.77;;
20627;SDS011;10473;42.734;24.258;2022-09-27T00:39:54;1.60;;;1.50;;
20627;SDS011;10473;42.734;24.258;2022-09-27T00:42:22;2.30;;;1.57;;
20627;SDS011;10473;42.734;24.258;2022-09-27T00:44:57;3.00;;;1.60;;
20627;SDS011;10473;42.734;24.258;2022-09-27T00:47:29;3.63;;;1.90;;
20627;SDS011;10473;42.734;24.258;2022-09-27T00:50:04;2.17;;;1.60;;
20627;SDS011;10473;42.734;24.258;2022-09-27T00:52:39;1.57;;;1.20;;
20627;SDS011;10473;42.734;24.258;2022-09-27T00:55:14;1.83;;;1.67;;
20627;SDS011;10473;42.734;24.258;2022-09-27T00:57:46;1.80;;;1.53;;
20627;SDS011;10473;42.734;24.258;2022-09-27T01:00:15;2.27;;;1.50;;
20627;SDS011;10473;42.734;24.258;2022-09-27T01:02:44;1.93;;;1.47;;
20627;SDS011;10473;42.734;24.258;2022-09-27T01:05:15;2.40;;;1.63;;
20627;SDS011;10473;42.734;24.258;2022-09-27T01:07:46;2.17;;;1.87;;
20627;SDS011;10473;42.734;24.258;2022-09-27T01:10:15;2.30;;;1.70;;
20627;SDS011;10473;42.734;24.258;2022-09-27T01:12:48;2.40;;;1.90;;
20627;SDS011;10473;42.734;24.258;2022-09-27T01:15:27;3.03;;;2.60;;
20627;SDS011;10473;42.734;24.258;2022-09-27T01:18:09;2.67;;;1.90;;
20627;SDS011;10473;42.734;24.258;2022-09-27T01:24:13;2.10;;;1.90;;
20627;SDS011;10473;42.734;24.258;2022-09-27T01:27:16;2.20;;;1.87;;
20627;SDS011;10473;42.734;24.258;2022-09-27T01:36:18;2.13;;;1.73;;
20627;SDS011;10473;42.734;24.258;2022-09-27T01:38:53;3.20;;;1.83;;
20627;SDS011;10473;42.734;24.258;2022-09-27T01:41:52;3.37;;;2.23;;
20627;SDS011;10473;42.734;24.258;2022-09-27T01:44:39;1.63;;;1.53;;
20627;SDS011;10473;42.734;24.258;2022-09-27T01:47:20;2.53;;;1.50;;
20627;SDS011;10473;42.734;24.258;2022-09-27T01:50:00;2.50;;;2.00;;
20627;SDS011;10473;42.734;24.258;2022-09-27T01:52:35;3.67;;;1.77;;
20627;SDS011;10473;42.734;24.258;2022-09-27T01:55:08;4.37;;;3.40;;
20627;SDS011;10473;42.734;24.258;2022-09-27T01:57:58;1.90;;;1.53;;
20627;SDS011;10473;42.734;24.258;2022-09-27T02:00:31;1.77;;;1.57;;
20627;SDS011;10473;42.734;24.258;2022-09-27T02:03:03;2.30;;;1.80;;
20627;SDS011;10473;42.734;24.258;2022-09-27T02:05:36;2.30;;;1.67;;
20627;SDS011;10473;42.734;24.258;2022-09-27T02:08:27;2.23;;;1.90;;
20627;SDS011;10473;42.734;24.258;2022-09-27T02:11:02;2.77;;;2.17;;
20627;SDS011;10473;42.734;24.258;2022-09-27T02:13:37;1.57;;;1.47;;
20627;SDS011;10473;42.734;24.258;2022-09-27T02:16:32;2.13;;;1.93;;
20627;SDS011;10473;42.734;24.258;2022-09-27T02:19:12;1.87;;;1.43;;
20627;SDS011;10473;42.734;24.258;2022-09-27T02:21:49;2.20;;;1.20;;
20627;SDS011;10473;42.734;24.258;2022-09-27T02:24:29;1.37;;;1.27;;
20627;SDS011;10473;42.734;24.258;2022-09-27T02:27:05;1.70;;;1.60;;
20627;SDS011;10473;42.734;24.258;2022-09-27T02:29:42;3.50;;;2.07;;
20627;SDS011;10473;42.734;24.258;2022-09-27T02:32:16;2.63;;;2.37;;
20627;SDS011;10473;42.734;24.258;2022-09-27T02:34:45;2.40;;;2.20;;
20627;SDS011;10473;42.734;24.258;2022-09-27T02:37:15;4.10;;;3.00;;
20627;SDS011;10473;42.734;24.258;2022-09-27T02:39:43;3.03;;;2.53;;
20627;SDS011;10473;42.734;24.258;2022-09-27T02:42:11;2.33;;;2.13;;
20627;SDS011;10473;42.734;24.258;2022-09-27T02:44:41;3.70;;;2.63;;
20627;SDS011;10473;42.734;24.258;2022-09-27T02:47:23;2.60;;;2.20;;
20627;SDS011;10473;42.734;24.258;2022-09-27T02:53:37;2.03;;;1.63;;
20627;SDS011;10473;42.734;24.258;2022-09-27T02:56:37;4.83;;;2.43;;
20627;SDS011;10473;42.734;24.258;2022-09-27T02:59:38;2.30;;;2.10;;
20627;SDS011;10473;42.734;24.258;2022-09-27T03:02:31;2.50;;;1.83;;
20627;SDS011;10473;42.734;24.258;2022-09-27T03:05:23;2.93;;;2.50;;
20627;SDS011;10473;42.734;24.258;2022-09-27T03:07:55;2.63;;;1.97;;
20627;SDS011;10473;42.734;24.258;2022-09-27T03:10:23;2.63;;;1.97;;
20627;SDS011;10473;42.734;24.258;2022-09-27T03:12:53;2.43;;;2.00;;
20627;SDS011;10473;42.734;24.258;2022-09-27T03:15:22;2.50;;;2.30;;
20627;SDS011;10473;42.734;24.258;2022-09-27T03:18:02;2.70;;;2.07;;
20627;SDS011;10473;42.734;24.258;2022-09-27T03:20:48;2.93;;;2.10;;
20627;SDS011;10473;42.734;24.258;2022-09-27T03:23:21;3.23;;;2.13;;
20627;SDS011;10473;42.734;24.258;2022-09-27T03:25:49;2.97;;;1.97;;
20627;SDS011;10473;42.734;24.258;2022-09-27T03:28:17;2.40;;;1.83;;
20627;SDS011;10473;42.734;24.258;2022-09-27T03:30:46;2.03;;;1.80;;
20627;SDS011;10473;42.734;24.258;2022-09-27T03:33:34;2.93;;;2.10;;
20627;SDS011;10473;42.734;24.258;2022-09-27T03:36:07;2.07;;;1.60;;
20627;SDS011;10473;42.734;24.258;2022-09-27T03:38:36;1.63;;;1.47;;
20627;SDS011;10473;42.734;24.258;2022-09-27T03:41:06;1.70;;;1.47;;
20627;SDS011;10473;42.734;24.258;2022-09-27T03:43:34;2.20;;;1.80;;
20627;SDS011;10473;42.734;24.258;2022-09-27T03:46:03;1.90;;;1.67;;
20627;SDS011;10473;42.734;24.258;2022-09-27T03:48:31;1.47;;;1.20;;
20627;SDS011;10473;42.734;24.258;2022-09-27T03:50:59;1.77;;;1.57;;
20627;SDS011;10473;42.734;24.258;2022-09-27T03:53:28;2.13;;;1.30;;
20627;SDS011;10473;42.734;24.258;2022-09-27T03:55:57;2.23;;;1.50;;
20627;SDS011;10473;42.734;24.258;2022-09-27T03:58:25;1.47;;;1.13;;
20627;SDS011;10473;42.734;24.258;2022-09-27T04:00:53;1.47;;;1.23;;
20627;SDS011;10473;42.734;24.258;2022-09-27T04:03:21;2.10;;;1.17;;
20627;SDS011;10473;42.734;24.258;2022-09-27T04:06:10;1.43;;;1.17;;
20627;SDS011;10473;42.734;24.258;2022-09-27T04:08:42;1.83;;;0.93;;
20627;SDS011;10473;42.734;24.258;2022-09-27T04:11:11;1.60;;;1.30;;
20627;SDS011;10473;42.734;24.258;2022-09-27T04:13:42;1.73;;;1.10;;
20627;SDS011;10473;42.734;24.258;2022-09-27T04:16:11;1.53;;;1.43;;
20627;SDS011;10473;42.734;24.258;2022-09-27T04:18:53;1.40;;;1.30;;
20627;SDS011;10473;42.734;24.258;2022-09-27T04:21:45;6.83;;;1.00;;
20627;SDS011;10473;42.734;24.258;2022-09-27T04:24:14;1.87;;;1.20;;
20627;SDS011;10473;42.734;24.258;2022-09-27T04:26:54;1.50;;;1.10;;
20627;SDS011;10473;42.734;24.258;2022-09-27T04:29:25;0.70;;;0.60;;
20627;SDS011;10473;42.734;24.258;2022-09-27T04:31:54;2.63;;;1.17;;
20627;SDS011;10473;42.734;24.258;2022-09-27T04:34:22;1.07;;;0.80;;
20627;SDS011;10473;42.734;24.258;2022-09-27T04:37:10;1.90;;;0.90;;
20627;SDS011;10473;42.734;24.258;2022-09-27T04:39:40;1.03;;;0.80;;
20627;SDS011;10473;42.734;24.258;2022-09-27T04:42:10;1.03;;;0.70;;
20627;SDS011;10473;42.734;24.258;2022-09-27T04:44:38;0.77;;;0.77;;
20627;SDS011;10473;42.734;24.258;2022-09-27T04:47:06;1.00;;;0.90;;
20627;SDS011;10473;42.734;24.258;2022-09-27T04:49:34;0.80;;;0.80;;
20627;SDS011;10473;42.734;24.258;2022-09-27T04:52:04;1.63;;;1.50;;
20627;SDS011;10473;42.734;24.258;2022-09-27T04:54:32;1.63;;;1.30;;
20627;SDS011;10473;42.734;24.258;2022-09-27T04:57:15;1.70;;;1.60;;
20627;SDS011;10473;42.734;24.258;2022-09-27T04:59:43;2.27;;;1.83;;
20627;SDS011;10473;42.734;24.258;2022-09-27T05:02:12;1.40;;;1.30;;
20627;SDS011;10473;42.734;24.258;2022-09-27T05:05:15;2.27;;;1.60;;
20627;SDS011;10473;42.734;24.258;2022-09-27T05:07:43;2.13;;;1.70;;
20627;SDS011;10473;42.734;24.258;2022-09-27T05:10:23;1.83;;;1.67;;
20627;SDS011;10473;42.734;24.258;2022-09-27T05:12:52;4.23;;;1.70;;
20627;SDS011;10473;42.734;24.258;2022-09-27T05:15:20;1.33;;;1.23;;
20627;SDS011;10473;42.734;24.258;2022-09-27T05:18:06;2.73;;;1.93;;
20627;SDS011;10473;42.734;24.258;2022-09-27T05:21:01;1.50;;;1.40;;
20627;SDS011;10473;42.734;24.258;2022-09-27T05:23:37;1.50;;;1.00;;
20627;SDS011;10473;42.734;24.258;2022-09-27T05:26:05;1.10;;;0.90;;
20627;SDS011;10473;42.734;24.258;2022-09-27T05:28:35;1.40;;;1.00;;
20627;SDS011;10473;42.734;24.258;2022-09-27T05:31:03;1.83;;;1.03;;
20627;SDS011;10473;42.734;24.258;2022-09-27T05:33:31;0.87;;;0.80;;
20627;SDS011;10473;42.734;24.258;2022-09-27T05:36:18;2.27;;;1.00;;
20627;SDS011;10473;42.734;24.258;2022-09-27T05:38:46;2.17;;;1.90;;
20627;SDS011;10473;42.734;24.258;2022-09-27T05:41:14;1.50;;;1.27;;
20627;SDS011;10473;42.734;24.258;2022-09-27T05:43:44;1.80;;;1.57;;
20627;SDS011;10473;42.734;24.258;2022-09-27T05:46:13;1.03;;;0.93;;
20627;SDS011;10473;42.734;24.258;2022-09-27T05:48:42;1.20;;;1.10;;
20627;SDS011;10473;42.734;24.258;2022-09-27T05:51:10;3.10;;;2.10;;
20627;SDS011;10473;42.734;24.258;2022-09-27T05:53:40;2.70;;;2.50;;
20627;SDS011;10473;42.734;24.258;2022-09-27T05:56:22;1.93;;;1.80;;
20627;SDS011;10473;42.734;24.258;2022-09-27T05:59:12;1.63;;;1.37;;
20627;SDS011;10473;42.734;24.258;2022-09-27T06:02:00;1.43;;;1.27;;
20627;SDS011;10473;42.734;24.258;2022-09-27T06:04:43;2.67;;;2.47;;
20627;SDS011;10473;42.734;24.258;2022-09-27T06:07:29;2.87;;;2.60;;
20627;SDS011;10473;42.734;24.258;2022-09-27T06:09:59;2.17;;;1.97;;
20627;SDS011;10473;42.734;24.258;2022-09-27T06:12:27;1.90;;;1.70;;
20627;SDS011;10473;42.734;24.258;2022-09-27T06:14:58;1.40;;;1.30;;
20627;SDS011;10473;42.734;24.258;2022-09-27T06:17:34;2.37;;;1.90;;
20627;SDS011;10473;42.734;24.258;2022-09-27T06:20:08;1.80;;;1.70;;
20627;SDS011;10473;42.734;24.258;2022-09-27T06:22:36;2.67;;;2.00;;
20627;SDS011;10473;42.734;24.258;2022-09-27T06:25:06;2.00;;;1.90;;
20627;SDS011;10473;42.734;24.258;2022-09-27T06:27:43;1.47;;;1.20;;
20627;SDS011;10473;42.734;24.258;2022-09-27T06:30:22;1.23;;;1.00;;
20627;SDS011;10473;42.734;24.258;2022-09-27T06:32:56;3.63;;;1.20;;
20627;SDS011;10473;42.734;24.258;2022-09-27T06:35:39;1.17;;;1.07;;
20627;SDS011;10473;42.734;24.258;2022-09-27T06:38:09;1.73;;;1.53;;
20627;SDS011;10473;42.734;24.258;2022-09-27T06:40:44;1.30;;;1.20;;
20627;SDS011;10473;42.734;24.258;2022-09-27T06:43:33;2.53;;;2.33;;
20627;SDS011;10473;42.734;24.258;2022-09-27T06:46:08;3.07;;;2.50;;
20627;SDS011;10473;42.734;24.258;2022-09-27T06:49:05;3.23;;;1.83;;
20627;SDS011;10473;42.734;24.258;2022-09-27T06:51:34;1.77;;;1.67;;
20627;SDS011;10473;42.734;24.258;2022-09-27T06:54:01;3.00;;;2.00;;
20627;SDS011;10473;42.734;24.258;2022-09-27T06:56:30;3.57;;;2.43;;
20627;SDS011;10473;42.734;24.258;2022-09-27T06:58:58;3.77;;;3.13;;
20627;SDS011;10473;42.734;24.258;2022-09-27T07:01:44;3.80;;;3.00;;
20627;SDS011;10473;42.734;24.258;2022-09-27T07:04:18;1.80;;;1.70;;
20627;SDS011;10473;42.734;24.258;2022-09-27T07:07:04;1.20;;;1.10;;
20627;SDS011;10473;42.734;24.258;2022-09-27T07:09:52;1.27;;;1.17;;
20627;SDS011;10473;42.734;24.258;2022-09-27T07:12:20;1.20;;;1.10;;
20627;SDS011;10473;42.734;24.258;2022-09-27T07:14:49;2.13;;;1.63;;
20627;SDS011;10473;42.734;24.258;2022-09-27T07:17:19;2.07;;;1.87;;
20627;SDS011;10473;42.734;24.258;2022-09-27T07:19:49;1.80;;;1.70;;
20627;SDS011;10473;42.734;24.258;2022-09-27T07:22:17;1.93;;;1.70;;
20627;SDS011;10473;42.734;24.258;2022-09-27T07:24:50;2.20;;;2.00;;
20627;SDS011;10473;42.734;24.258;2022-09-27T07:27:19;1.70;;;1.50;;
20627;SDS011;10473;42.734;24.258;2022-09-27T07:29:48;4.97;;;2.30;;
20627;SDS011;10473;42.734;24.258;2022-09-27T07:32:16;3.60;;;2.23;;
20627;SDS011;10473;42.734;24.258;2022-09-27T07:34:46;2.60;;;1.83;;
20627;SDS011;10473;42.734;24.258;2022-09-27T07:37:13;1.97;;;1.80;;
20627;SDS011;10473;42.734;24.258;2022-09-27T07:39:43;1.40;;;1.10;;
20627;SDS011;10473;42.734;24.258;2022-09-27T07:42:12;2.20;;;1.30;;
20627;SDS011;10473;42.734;24.258;2022-09-27T07:44:43;1.73;;;1.53;;
20627;SDS011;10473;42.734;24.258;2022-09-27T07:47:41;2.17;;;1.80;;
20627;SDS011;10473;42.734;24.258;2022-09-27T07:50:39;2.10;;;1.57;;
20627;SDS011;10473;42.734;24.258;2022-09-27T07:53:38;2.20;;;2.00;;
20627;SDS011;10473;42.734;24.258;2022-09-27T07:56:25;3.03;;;2.73;;
20627;SDS011;10473;42.734;24.258;2022-09-27T07:58:53;3.33;;;2.90;;
20627;SDS011;10473;42.734;24.258;2022-09-27T08:01:21;2.13;;;1.63;;
20627;SDS011;10473;42.734;24.258;2022-09-27T08:03:49;2.47;;;2.07;;
20627;SDS011;10473;42.734;24.258;2022-09-27T08:06:19;1.50;;;1.40;;
20627;SDS011;10473;42.734;24.258;2022-09-27T08:08:47;1.33;;;1.23;;
20627;SDS011;10473;42.734;24.258;2022-09-27T08:11:17;2.13;;;1.83;;
20627;SDS011;10473;42.734;24.258;2022-09-27T08:13:48;2.13;;;1.43;;
20627;SDS011;10473;42.734;24.258;2022-09-27T08:16:19;2.00;;;1.80;;
20627;SDS011;10473;42.734;24.258;2022-09-27T08:19:05;1.40;;;1.30;;
20627;SDS011;10473;42.734;24.258;2022-09-27T08:21:45;1.50;;;1.37;;
20627;SDS011;10473;42.734;24.258;2022-09-27T08:24:16;2.47;;;1.73;;
20627;SDS011;10473;42.734;24.258;2022-09-27T08:27:01;2.00;;;1.80;;
20627;SDS011;10473;42.734;24.258;2022-09-27T08:29:46;1.93;;;1.73;;
20627;SDS011;10473;42.734;24.258;2022-09-27T08:32:15;1.80;;;1.70;;
20627;SDS011;10473;42.734;24.258;2022-09-27T08:34:43;1.53;;;1.40;;
20627;SDS011;10473;42.734;24.258;2022-09-27T08:37:12;1.30;;;1.10;;
20627;SDS011;10473;42.734;24.258;2022-09-27T08:39:40;1.50;;;1.40;;
20627;SDS011;10473;42.734;24.258;2022-09-27T08:42:12;2.30;;;2.10;;
20627;SDS011;10473;42.734;24.258;2022-09-27T08:44:49;2.27;;;1.93;;
20627;SDS011;10473;42.734;24.258;2022-09-27T08:47:27;1.70;;;1.60;;
20627;SDS011;10473;42.734;24.258;2022-09-27T08:50:01;1.93;;;1.30;;
20627;SDS011;10473;42.734;24.258;2022-09-27T08:52:38;2.80;;;1.80;;
20627;SDS011;10473;42.734;24.258;2022-09-27T08:55:15;1.63;;;1.53;;
20627;SDS011;10473;42.734;24.258;2022-09-27T08:57:49;1.87;;;1.63;;
20627;SDS011;10473;42.734;24.258;2022-09-27T09:00:23;2.60;;;1.90;;
20627;SDS011;10473;42.734;24.258;2022-09-27T09:02:52;1.60;;;1.50;;
20627;SDS011;10473;42.734;24.258;2022-09-27T09:05:21;2.00;;;1.80;;
20627;SDS011;10473;42.734;24.258;2022-09-27T09:08:00;1.87;;;1.67;;
20627;SDS011;10473;42.734;24.258;2022-09-27T09:10:48;1.63;;;1.53;;
20627;SDS011;10473;42.734;24.258;2022-09-27T09:13:41;1.63;;;1.50;;
20627;SDS011;10473;42.734;24.258;2022-09-27T09:16:23;1.60;;;1.50;;
20627;SDS011;10473;42.734;24.258;2022-09-27T09:19:06;2.27;;;1.73;;
20627;SDS011;10473;42.734;24.258;2022-09-27T09:21:58;1.40;;;1.30;;
20627;SDS011;10473;42.734;24.258;2022-09-27T09:24:45;2.10;;;1.50;;
20627;SDS011;10473;42.734;24.258;2022-09-27T09:27:23;4.03;;;1.43;;
20627;SDS011;10473;42.734;24.258;2022-09-27T09:30:03;2.60;;;1.27;;
20627;SDS011;10473;42.734;24.258;2022-09-27T09:32:52;2.07;;;1.50;;
20627;SDS011;10473;42.734;24.258;2022-09-27T09:35:35;1.67;;;1.57;;
20627;SDS011;10473;42.734;24.258;2022-09-27T09:38:09;1.40;;;1.20;;
20627;SDS011;10473;42.734;24.258;2022-09-27T09:40:42;1.90;;;1.47;;
20627;SDS011;10473;42.734;24.258;2022-09-27T09:43:17;1.43;;;1.30;;
20627;SDS011;10473;42.734;24.258;2022-09-27T09:45:50;1.47;;;1.33;;
20627;SDS011;10473;42.734;24.258;2022-09-27T09:48:29;1.50;;;1.40;;
20627;SDS011;10473;42.734;24.258;2022-09-27T09:51:01;2.67;;;1.50;;
20627;SDS011;10473;42.734;24.258;2022-09-27T09:53:36;1.77;;;1.20;;
20627;SDS011;10473;42.734;24.258;2022-09-27T09:56:11;1.40;;;1.10;;
20627;SDS011;10473;42.734;24.258;2022-09-27T09:58:45;1.43;;;1.23;;
20627;SDS011;10473;42.734;24.258;2022-09-27T10:01:20;1.57;;;1.27;;
20627;SDS011;10473;42.734;24.258;2022-09-27T10:03:52;1.63;;;1.50;;
20627;SDS011;10473;42.734;24.258;2022-09-27T10:06:21;1.63;;;1.23;;
20627;SDS011;10473;42.734;24.258;2022-09-27T10:08:51;1.67;;;1.20;;
20627;SDS011;10473;42.734;24.258;2022-09-27T10:11:33;1.30;;;0.93;;
20627;SDS011;10473;42.734;24.258;2022-09-27T10:14:25;1.43;;;1.33;;
20627;SDS011;10473;42.734;24.258;2022-09-27T10:16:58;1.60;;;1.50;;
20627;SDS011;10473;42.734;24.258;2022-09-27T10:19:30;1.50;;;1.40;;
20627;SDS011;10473;42.734;24.258;2022-09-27T10:22:09;1.73;;;1.63;;
20627;SDS011;10473;42.734;24.258;2022-09-27T10:24:53;1.50;;;1.40;;
20627;SDS011;10473;42.734;24.258;2022-09-27T10:28:02;1.87;;;1.37;;
20627;SDS011;10473;42.734;24.258;2022-09-27T10:30:34;1.50;;;1.40;;
20627;SDS011;10473;42.734;24.258;2022-09-27T10:33:13;2.00;;;1.80;;
20627;SDS011;10473;42.734;24.258;2022-09-27T10:35:46;7.13;;;3.47;;
20627;SDS011;10473;42.734;24.258;2022-09-27T10:38:30;2.90;;;2.33;;
20627;SDS011;10473;42.734;24.258;2022-09-27T10:41:22;1.87;;;1.73;;
20627;SDS011;10473;42.734;24.258;2022-09-27T10:44:17;2.00;;;1.57;;
20627;SDS011;10473;42.734;24.258;2022-09-27T10:46:51;1.90;;;1.47;;
20627;SDS011;10473;42.734;24.258;2022-09-27T10:49:50;3.03;;;1.50;;
20627;SDS011;10473;42.734;24.258;2022-09-27T10:52:37;1.50;;;1.40;;
20627;SDS011;10473;42.734;24.258;2022-09-27T10:55:07;1.03;;;0.97;;
20627;SDS011;10473;42.734;24.258;2022-09-27T10:57:50;4.00;;;1.40;;
20627;SDS011;10473;42.734;24.258;2022-09-27T11:00:23;3.77;;;2.13;;
20627;SDS011;10473;42.734;24.258;2022-09-27T11:02:53;1.40;;;1.30;;
20627;SDS011;10473;42.734;24.258;2022-09-27T11:05:30;1.67;;;1.30;;
20627;SDS011;10473;42.734;24.258;2022-09-27T11:08:01;1.40;;;1.30;;
20627;SDS011;10473;42.734;24.258;2022-09-27T11:11:04;1.17;;;1.07;;
20627;SDS011;10473;42.734;24.258;2022-09-27T11:13:36;2.37;;;1.67;;
20627;SDS011;10473;42.734;24.258;2022-09-27T11:16:26;1.60;;;1.50;;
20627;SDS011;10473;42.734;24.258;2022-09-27T11:19:06;1.40;;;1.20;;
20627;SDS011;10473;42.734;24.258;2022-09-27T11:21:49;3.60;;;2.47;;
20627;SDS011;10473;42.734;24.258;2022-09-27T11:24:30;2.33;;;2.10;;
20627;SDS011;10473;42.734;24.258;2022-09-27T11:27:17;4.10;;;2.47;;
20627;SDS011;10473;42.734;24.258;2022-09-27T11:30:01;3.67;;;2.10;;
20627;SDS011;10473;42.734;24.258;2022-09-27T11:33:24;3.30;;;2.17;;
20627;SDS011;10473;42.734;24.258;2022-09-27T11:36:08;7.80;;;4.90;;
20627;SDS011;10473;42.734;24.258;2022-09-27T11:38:49;8.67;;;4.27;;
20627;SDS011;10473;42.734;24.258;2022-09-27T11:41:44;5.77;;;3.30;;
20627;SDS011;10473;42.734;24.258;2022-09-27T11:44:35;1.77;;;1.60;;
20627;SDS011;10473;42.734;24.258;2022-09-27T11:47:27;1.90;;;1.50;;
20627;SDS011;10473;42.734;24.258;2022-09-27T11:53:29;1.47;;;1.30;;
20627;SDS011;10473;42.734;24.258;2022-09-27T11:56:10;1.57;;;1.40;;
20627;SDS011;10473;42.734;24.258;2022-09-27T11:58:52;0.97;;;0.93;;
20627;SDS011;10473;42.734;24.258;2022-09-27T12:01:30;1.20;;;1.10;;
20627;SDS011;10473;42.734;24.258;2022-09-27T12:07:13;1.23;;;1.13;;
20627;SDS011;10473;42.734;24.258;2022-09-27T12:09:51;1.27;;;1.17;;
20627;SDS011;10473;42.734;24.258;2022-09-27T12:12:25;1.40;;;1.23;;
20627;SDS011;10473;42.734;24.258;2022-09-27T12:14:56;1.20;;;1.10;;
20627;SDS011;10473;42.734;24.258;2022-09-27T12:17:30;0.83;;;0.77;;
20627;SDS011;10473;42.734;24.258;2022-09-27T12:20:03;2.53;;;2.10;;
20627;SDS011;10473;42.734;24.258;2022-09-27T12:22:46;1.20;;;1.10;;
20627;SDS011;10473;42.734;24.258;2022-09-27T12:25:24;1.20;;;1.10;;
20627;SDS011;10473;42.734;24.258;2022-09-27T12:28:03;1.40;;;1.30;;
20627;SDS011;10473;42.734;24.258;2022-09-27T12:30:36;1.00;;;0.90;;
20627;SDS011;10473;42.734;24.258;2022-09-27T12:33:12;1.30;;;1.20;;
20627;SDS011;10473;42.734;24.258;2022-09-27T12:35:47;1.50;;;1.40;;
20627;SDS011;10473;42.734;24.258;2022-09-27T12:38:19;1.50;;;1.00;;
20627;SDS011;10473;42.734;24.258;2022-09-27T12:40:52;1.13;;;1.03;;
20627;SDS011;10473;42.734;24.258;2022-09-27T12:43:33;1.30;;;1.20;;
20627;SDS011;10473;42.734;24.258;2022-09-27T12:46:17;0.80;;;0.80;;
20627;SDS011;10473;42.734;24.258;2022-09-27T12:48:56;1.10;;;1.10;;
20627;SDS011;10473;42.734;24.258;2022-09-27T12:51:32;1.03;;;1.00;;
20627;SDS011;10473;42.734;24.258;2022-09-27T12:54:09;1.10;;;1.00;;
20627;SDS011;10473;42.734;24.258;2022-09-27T12:56:58;1.53;;;1.30;;
20627;SDS011;10473;42.734;24.258;2022-09-27T12:59:43;2.67;;;2.07;;
20627;SDS011;10473;42.734;24.258;2022-09-27T13:05:33;1.43;;;1.30;;
20627;SDS011;10473;42.734;24.258;2022-09-27T13:08:26;1.13;;;1.03;;
20627;SDS011;10473;42.734;24.258;2022-09-27T13:11:11;1.07;;;1.07;;
20627;SDS011;10473;42.734;24.258;2022-09-27T13:13:48;1.53;;;1.30;;
20627;SDS011;10473;42.734;24.258;2022-09-27T13:16:21;1.57;;;1.37;;
20627;SDS011;10473;42.734;24.258;2022-09-27T13:18:55;1.50;;;1.20;;
20627;SDS011;10473;42.734;24.258;2022-09-27T13:28:31;1.30;;;1.20;;
20627;SDS011;10473;42.734;24.258;2022-09-27T13:31:05;1.50;;;1.40;;
20627;SDS011;10473;42.734;24.258;2022-09-27T13:33:41;1.17;;;1.03;;
20627;SDS011;10473;42.734;24.258;2022-09-27T13:36:25;1.83;;;0.93;;
20627;SDS011;10473;42.734;24.258;2022-09-27T13:39:15;1.30;;;1.20;;
20627;SDS011;10473;42.734;24.258;2022-09-27T13:42:07;1.00;;;1.00;;
20627;SDS011;10473;42.734;24.258;2022-09-27T13:44:44;1.10;;;0.90;;
20627;SDS011;10473;42.734;24.258;2022-09-27T15:09:00;1.47;;;1.23;;
20627;SDS011;10473;42.734;24.258;2022-09-27T15:11:29;1.67;;;1.43;;
20627;SDS011;10473;42.734;24.258;2022-09-27T15:13:59;0.77;;;0.77;;
20627;SDS011;10473;42.734;24.258;2022-09-27T15:16:29;0.80;;;0.80;;
20627;SDS011;10473;42.734;24.258;2022-09-27T15:18:58;1.23;;;0.97;;
20627;SDS011;10473;42.734;24.258;2022-09-27T15:21:29;1.37;;;0.83;;
20627;SDS011;10473;42.734;24.258;2022-09-27T15:23:58;1.17;;;1.07;;
20627;SDS011;10473;42.734;24.258;2022-09-27T15:26:33;1.47;;;1.10;;
20627;SDS011;10473;42.734;24.258;2022-09-27T15:29:03;1.27;;;1.17;;
20627;SDS011;10473;42.734;24.258;2022-09-27T15:31:31;1.23;;;1.13;;
20627;SDS011;10473;42.734;24.258;2022-09-27T15:34:01;2.37;;;1.00;;
20627;SDS011;10473;42.734;24.258;2022-09-27T15:39:29;3.10;;;2.00;;
20627;SDS011;10473;42.734;24.258;2022-09-27T15:42:01;0.90;;;0.90;;
20627;SDS011;10473;42.734;24.258;2022-09-27T15:44:44;1.10;;;1.00;;
20627;SDS011;10473;42.734;24.258;2022-09-27T15:52:59;1.90;;;1.00;;
20627;SDS011;10473;42.734;24.258;2022-09-27T15:55:28;1.50;;;1.30;;
20627;SDS011;10473;42.734;24.258;2022-09-27T15:58:00;1.27;;;1.13;;
20627;SDS011;10473;42.734;24.258;2022-09-27T16:00:30;1.77;;;1.17;;
20627;SDS011;10473;42.734;24.258;2022-09-27T16:02:58;0.93;;;0.90;;
20627;SDS011;10473;42.734;24.258;2022-09-27T16:05:25;1.23;;;1.13;;
20627;SDS011;10473;42.734;24.258;2022-09-27T16:07:54;1.43;;;1.33;;
20627;SDS011;10473;42.734;24.258;2022-09-27T16:10:24;1.40;;;1.30;;
20627;SDS011;10473;42.734;24.258;2022-09-27T16:12:55;1.37;;;1.17;;
20627;SDS011;10473;42.734;24.258;2022-09-27T16:15:24;1.67;;;1.40;;
20627;SDS011;10473;42.734;24.258;2022-09-27T16:17:52;1.37;;;1.27;;
20627;SDS011;10473;42.734;24.258;2022-09-27T16:20:20;1.80;;;1.23;;
20627;SDS011;10473;42.734;24.258;2022-09-27T16:22:50;1.43;;;1.33;;
20627;SDS011;10473;42.734;24.258;2022-09-27T16:25:18;2.27;;;1.50;;
20627;SDS011;10473;42.734;24.258;2022-09-27T16:27:47;1.77;;;1.50;;
20627;SDS011;10473;42.734;24.258;2022-09-27T16:30:15;1.43;;;1.33;;
20627;SDS011;10473;42.734;24.258;2022-09-27T16:32:46;1.30;;;1.03;;
20627;SDS011;10473;42.734;24.258;2022-09-27T16:35:15;1.20;;;1.10;;
20627;SDS011;10473;42.734;24.258;2022-09-27T16:37:44;1.13;;;1.03;;
20627;SDS011;10473;42.734;24.258;2022-09-27T16:40:12;2.97;;;1.83;;
20627;SDS011;10473;42.734;24.258;2022-09-27T16:42:43;2.23;;;1.60;;
20627;SDS011;10473;42.734;24.258;2022-09-27T16:45:11;2.87;;;1.10;;
20627;SDS011;10473;42.734;24.258;2022-09-27T16:47:41;1.47;;;1.23;;
20627;SDS011;10473;42.734;24.258;2022-09-27T16:50:11;0.40;;;0.30;;
20627;SDS011;10473;42.734;24.258;2022-09-27T16:52:57;0.60;;;0.53;;
20627;SDS011;10473;42.734;24.258;2022-09-27T16:55:25;0.40;;;0.37;;
20627;SDS011;10473;42.734;24.258;2022-09-27T16:57:56;0.80;;;0.60;;
20627;SDS011;10473;42.734;24.258;2022-09-27T17:00:24;1.70;;;0.80;;
20627;SDS011;10473;42.734;24.258;2022-09-27T17:02:53;1.27;;;0.40;;
20627;SDS011;10473;42.734;24.258;2022-09-27T17:05:22;2.20;;;0.60;;
20627;SDS011;10473;42.734;24.258;2022-09-27T17:07:50;1.13;;;0.57;;
20627;SDS011;10473;42.734;24.258;2022-09-27T17:10:18;2.47;;;1.50;;
20627;SDS011;10473;42.734;24.258;2022-09-27T17:12:47;1.33;;;1.00;;
20627;SDS011;10473;42.734;24.258;2022-09-27T17:15:15;8.93;;;3.50;;
20627;SDS011;10473;42.734;24.258;2022-09-27T17:17:43;3.43;;;1.60;;
20627;SDS011;10473;42.734;24.258;2022-09-27T17:20:14;2.97;;;2.17;;
20627;SDS011;10473;42.734;24.258;2022-09-27T17:22:43;2.50;;;1.50;;